Historyczne dane pomiarowe

Dodano dane terminowe – wersja testowa.

Dane z okresu 1951-2019

Wersja bazy: 1.34 [2019-03-16, lista zmian], aktualizacja planowana na 2019-04-15

Dane meteo z obszaru Polski uzyskane na podstawie danych udostępnionych przez Instytut Meteorologii i Gospodarki Wodnej – Państwowy Instytut Badawczy.

 

Wybierz Datę:    

       

TemperaturaWilgotnośćWiatrCiśnienieOpadyŚniegCzas trwania zjawisk
 Stacja t tx tn tng RH VA  wxwx mslp ppp RRR   cm mm wxwxwxwxwxwxwx
1986-12-13 -1.9 0.9 -3.0 -3.5 87.5- 5.7 0.0---- 0.0------------
1986-12-14 -2.6 -1.4 -4.7 -3.8 87.5- 8.0 0.3---- 0.3------------
1986-12-15 0.2 1.1 -1.6 -1.8 95.8- 8.0 1.3---- 0.0------------
1986-12-16 0.4 2.3 -1.6 -1.0 92.5- 8.0 4.7---- 4.0------------
1986-12-17 2.1 3.4 -0.2 0.0 90.0- 7.3 5.3---- 0.0------------
1986-12-18 3.0 3.8 1.4 2.0 93.0- 8.0 2.7---- 7.3------------
1986-12-19 2.5 5.0 0.4 0.4 86.8- 7.7 4.3---- 14.6------------
1986-12-20 0.1 1.7 -1.4 -1.2 90.3- 8.0 5.3---- 0.4------------
1986-12-21 -4.3 -0.5 -5.8 -7.0 76.5- 3.3 3.7---- 0.1------------
1986-12-22 -4.4 -3.7 -6.3 -7.5 88.5- 8.0 7.3---- 1.5-- 1---------
1986-12-23 -2.8 -1.7 -3.7 -5.2 92.0- 6.7 1.7---- 0.3-- 5---------
1986-12-24 -6.8 -3.4 -7.9 -6.0 83.3- 8.0 1.3---- 0.0-- 5---------
1986-12-25 -6.9 -4.9 -8.2-10.0 89.3- 6.3 0.7---- 0.0-- 5---------
1986-12-26 -8.3 -6.9 -9.1 -9.8 80.0- 5.3 1.7---- 0.4-- 5---------
1986-12-27 -3.1 0.1 -8.2 -9.0 88.0- 8.0 2.7---- 1.6-- 6---------
1986-12-28 -0.4 0.9 -2.0 -3.2 90.3- 8.0 5.7---- 2.4-- 5---------
1986-12-29 -0.8 3.6 -7.7 -8.0 88.0- 8.0 5.7---- 5.8-- 8---------
1986-12-30 -0.2 3.0 -3.0 -6.4 70.3- 5.0 7.3---- 0.2-- 3---------
1986-12-31 -3.5 0.3 -9.5-12.6 91.3- 8.0 2.7---- 0.9-- 5---------
1987-01-01 -2.1 0.9 -6.4 -8.0 91.3- 6.0 0.0---- 0.3-- 4---------
1987-01-02-12.4 -6.3-15.1-18.0 80.0- 4.7 2.7---- 0.0-- 4---------
1987-01-03-11.1 -3.9-19.8-21.8 83.8- 8.0 3.3---- 0.6-- 4---------
1987-01-04 -8.4 -3.7-12.3-11.0 81.5- 2.3 2.0---- 0.3-- 6---------
1987-01-05 -4.7 1.5-14.3-17.8 87.5- 8.0 6.7---- 4.0-- 8---------
1987-01-06 -2.8 1.3-10.8 -1.4 85.0- 8.0 4.7---- 1.0-- 10---------
1987-01-07-22.5-10.5-27.0-22.0 74.8- 3.3 1.0---- 0.0-- 15---------
1987-01-08-20.5-11.8-31.4-32.0 79.0- 3.7 1.0---- 2.0-- 15---------
1987-01-09-13.5 -9.1-21.4-24.3 82.8- 5.0 1.7---- 1.7-- 20---------
1987-01-10-25.1-19.9-28.0-31.0 79.0- 3.7 0.0---- 0.0-- 20---------
1987-01-11-24.7-20.9-33.1-32.8 75.8- 5.0 1.0---- 1.4-- 20---------
313.8 ms

 

Źródłem pochodzenia danych jest Instytut Meteorologii i Gospodarki Wodnej – Państwowy Instytut Badawczy. Dane Instytutu Meteorologii i Gospodarki Wodnej – Państwowego Instytutu Badawczego zostały przetworzone.

Dane źródłowe można odnaleźć na stronie https://dane.imgw.pl